createdAt,value
2022-08-19T00:00:37.279Z,100711.63
2022-08-19T00:03:05.074Z,100721.59
2022-08-19T00:05:33.296Z,100715.63
2022-08-19T00:08:02.289Z,100714.88
2022-08-19T00:10:29.980Z,100719.66
2022-08-19T00:12:57.664Z,100722.13
2022-08-19T00:15:25.448Z,100724.84
2022-08-19T00:17:53.048Z,100723.91
2022-08-19T00:20:22.209Z,100715.34
2022-08-19T00:22:49.836Z,100720.75
2022-08-19T00:25:19.205Z,100724.06
2022-08-19T00:27:58.074Z,100718.69
2022-08-19T00:30:25.751Z,100719.66
2022-08-19T00:32:55.370Z,100722.28
2022-08-19T00:35:23.000Z,100726.50
2022-08-19T00:37:50.953Z,100716.28
2022-08-19T00:40:20.268Z,100714.69
2022-08-19T00:42:48.202Z,100717.34
2022-08-19T00:45:18.931Z,100711.59
2022-08-19T00:47:47.127Z,100706.63
2022-08-19T00:50:17.747Z,100701.47
2022-08-19T00:52:49.141Z,100717.63
2022-08-19T00:55:20.346Z,100711.31
2022-08-19T00:57:53.274Z,100711.34
2022-08-19T01:00:21.678Z,100711.94
2022-08-19T01:02:49.850Z,100719.56
2022-08-19T01:05:21.656Z,100709.00
2022-08-19T01:07:50.086Z,100713.97
2022-08-19T01:10:21.575Z,100713.19
2022-08-19T01:12:50.456Z,100714.31
2022-08-19T01:15:22.068Z,100708.19
2022-08-19T01:17:50.366Z,100711.59
2022-08-19T01:20:21.658Z,100710.69
2022-08-19T01:22:53.548Z,100705.81
2022-08-19T01:25:25.120Z,100700.13
2022-08-19T01:27:54.874Z,100697.75
2022-08-19T01:30:25.891Z,100699.50
2022-08-19T01:32:54.446Z,100701.41
2022-08-19T01:35:24.467Z,100700.56
2022-08-19T01:37:55.954Z,100706.72
2022-08-19T01:40:25.988Z,100699.72
2022-08-19T01:42:55.320Z,100700.06
2022-08-19T01:45:25.228Z,100694.94
2022-08-19T01:48:01.733Z,100700.78
2022-08-19T01:50:30.951Z,100690.19
2022-08-19T01:53:05.871Z,100693.56
2022-08-19T01:55:35.414Z,100697.72
2022-08-19T01:58:10.443Z,100696.38
2022-08-19T02:00:38.211Z,100695.31
2022-08-19T02:03:07.396Z,100698.03
2022-08-19T02:05:35.004Z,100706.97
2022-08-19T02:08:04.281Z,100710.03
2022-08-19T02:10:32.866Z,100709.28
2022-08-19T02:13:00.469Z,100705.38
2022-08-19T02:15:28.102Z,100689.78
2022-08-19T02:17:55.698Z,100691.69
2022-08-19T02:20:23.431Z,100691.91
2022-08-19T02:22:51.315Z,100695.06
2022-08-19T02:25:20.371Z,100690.09
2022-08-19T02:27:47.951Z,100686.03
2022-08-19T02:30:18.724Z,100683.63
2022-08-19T02:32:46.623Z,100687.41
2022-08-19T02:35:15.549Z,100690.00
2022-08-19T02:38:00.916Z,100697.06
2022-08-19T02:40:29.978Z,100699.94
2022-08-19T02:42:58.197Z,100702.91
2022-08-19T02:45:25.791Z,100701.34
2022-08-19T02:47:53.667Z,100697.63
2022-08-19T02:50:21.433Z,100699.75
2022-08-19T02:52:49.058Z,100687.78
2022-08-19T02:55:16.978Z,100690.00
2022-08-19T02:57:45.909Z,100690.22
2022-08-19T03:00:14.327Z,100685.19
2022-08-19T03:02:42.471Z,100690.31
2022-08-19T03:05:11.403Z,100691.28
2022-08-19T03:07:39.098Z,100700.09
2022-08-19T03:10:07.870Z,100698.38
2022-08-19T03:12:37.655Z,100713.34
2022-08-19T03:15:08.439Z,100712.59
2022-08-19T03:17:36.314Z,100711.66
2022-08-19T03:20:04.719Z,100706.56
2022-08-19T03:22:32.319Z,100714.19
2022-08-19T03:25:00.016Z,100713.00
2022-08-19T03:27:32.535Z,100710.59
2022-08-19T03:30:02.402Z,100707.63
2022-08-19T03:32:32.952Z,100701.91
2022-08-19T03:35:01.060Z,100700.13
2022-08-19T03:37:29.408Z,100699.91
2022-08-19T03:39:57.016Z,100704.03
2022-08-19T03:42:38.275Z,100701.72
2022-08-19T03:45:12.214Z,100694.72
2022-08-19T03:47:41.380Z,100691.66
2022-08-19T03:50:10.099Z,100698.66
2022-08-19T03:52:38.208Z,100696.44
2022-08-19T03:55:06.610Z,100701.25
2022-08-19T03:57:35.460Z,100698.94
2022-08-19T04:00:13.905Z,100699.41
2022-08-19T04:02:58.171Z,100696.28
2022-08-19T04:05:29.435Z,100696.56
2022-08-19T04:07:59.669Z,100691.16
2022-08-19T04:10:27.431Z,100696.13
2022-08-19T04:12:55.016Z,100696.13
2022-08-19T04:15:22.640Z,100696.44
2022-08-19T04:17:51.572Z,100687.22
2022-08-19T04:20:19.223Z,100687.66
2022-08-19T04:22:47.328Z,100686.38
2022-08-19T04:25:15.132Z,100684.44
2022-08-19T04:27:44.150Z,100681.25
2022-08-19T04:30:12.878Z,100686.75
2022-08-19T04:32:40.859Z,100689.50
2022-08-19T04:35:16.769Z,100688.44
2022-08-19T04:37:46.298Z,100688.44
2022-08-19T04:40:31.663Z,100681.44
2022-08-19T04:42:59.295Z,100673.41
2022-08-19T04:45:26.901Z,100681.03
2022-08-19T04:48:19.504Z,100663.47
2022-08-19T04:50:47.196Z,100669.50
2022-08-19T04:53:14.863Z,100670.56
2022-08-19T04:55:43.609Z,100668.97
2022-08-19T04:58:11.220Z,100679.34
2022-08-19T05:00:40.273Z,100679.13
2022-08-19T05:03:07.989Z,100681.69
2022-08-19T05:05:44.812Z,100690.06
2022-08-19T05:08:19.394Z,100693.78
2022-08-19T05:10:58.750Z,100690.00
2022-08-19T05:13:27.373Z,100686.22
2022-08-19T05:15:58.803Z,100691.13
2022-08-19T05:18:45.023Z,100697.38
2022-08-19T05:21:33.324Z,100696.38
2022-08-19T05:24:02.990Z,100703.16
2022-08-19T05:26:30.624Z,100705.50
2022-08-19T05:28:58.239Z,100695.50
2022-08-19T05:31:26.383Z,100696.19
2022-08-19T05:33:53.979Z,100690.03
2022-08-19T05:36:21.776Z,100687.66
2022-08-19T05:38:50.926Z,100682.06
2022-08-19T05:41:19.881Z,100685.03
2022-08-19T05:43:47.483Z,100681.97
2022-08-19T05:46:19.157Z,100685.88
2022-08-19T05:48:57.097Z,100686.91
2022-08-19T05:51:28.833Z,100686.97
2022-08-19T05:53:56.833Z,100688.13
2022-08-19T05:56:25.916Z,100696.56
2022-08-19T05:58:55.024Z,100687.75
2022-08-19T06:01:22.952Z,100673.81
2022-08-19T06:03:50.604Z,100674.59
2022-08-19T06:06:18.576Z,100661.91
2022-08-19T06:08:51.632Z,100663.78
2022-08-19T06:11:22.115Z,100663.41
2022-08-19T06:13:57.240Z,100659.81
2022-08-19T06:16:27.784Z,100658.03
2022-08-19T06:18:57.765Z,100660.84
2022-08-19T06:21:28.847Z,100665.63
2022-08-19T06:23:57.355Z,100668.53
2022-08-19T06:26:25.824Z,100663.94
2022-08-19T06:28:54.840Z,100658.31
2022-08-19T06:31:24.617Z,100657.50
2022-08-19T06:33:52.502Z,100665.56
2022-08-19T06:36:22.291Z,100667.59
2022-08-19T06:38:53.542Z,100667.28
2022-08-19T06:41:21.178Z,100672.88
2022-08-19T06:43:49.780Z,100669.78
2022-08-19T06:46:23.656Z,100666.72
2022-08-19T06:48:54.178Z,100665.56
2022-08-19T06:51:22.602Z,100665.00
2022-08-19T06:56:26.655Z,100676.28
2022-08-19T06:58:54.195Z,100685.13
2022-08-19T07:01:23.135Z,100685.13
2022-08-19T07:03:50.801Z,100679.63
2022-08-19T07:09:09.813Z,100678.19
2022-08-19T07:11:37.667Z,100684.00
2022-08-19T07:14:07.443Z,100676.44
2022-08-19T07:16:48.947Z,100674.47
2022-08-19T07:19:18.693Z,100684.31
2022-08-19T07:21:47.725Z,100684.06
2022-08-19T07:24:16.137Z,100686.72
2022-08-19T07:26:44.889Z,100692.47
2022-08-19T07:29:12.895Z,100690.91
2022-08-19T07:31:43.673Z,100683.06
2022-08-19T07:34:15.599Z,100687.72
2022-08-19T07:36:45.172Z,100689.69
2022-08-19T07:39:15.136Z,100688.72
2022-08-19T07:41:43.119Z,100687.38
2022-08-19T07:44:11.124Z,100690.03
2022-08-19T07:46:41.013Z,100688.09
2022-08-19T07:49:14.361Z,100695.94
2022-08-19T07:51:43.276Z,100688.06
2022-08-19T07:54:10.887Z,100699.88
2022-08-19T07:56:38.454Z,100693.69
2022-08-19T07:59:06.060Z,100700.88
2022-08-19T08:01:33.994Z,100698.34
2022-08-19T08:04:27.405Z,100694.38
2022-08-19T08:07:14.036Z,100689.97
2022-08-19T08:09:43.841Z,100700.44
2022-08-19T08:12:33.559Z,100711.16
2022-08-19T08:15:08.119Z,100708.00
2022-08-19T08:17:49.357Z,100716.53
2022-08-19T08:20:18.104Z,100714.13
2022-08-19T08:23:06.103Z,100721.69
2022-08-19T08:25:34.475Z,100722.91
2022-08-19T08:28:03.124Z,100724.66
2022-08-19T08:30:33.314Z,100725.09
2022-08-19T08:33:02.666Z,100730.50
2022-08-19T08:35:30.477Z,100721.28
2022-08-19T08:38:00.007Z,100730.88
2022-08-19T08:40:32.091Z,100724.81
2022-08-19T08:45:40.934Z,100726.97
2022-08-19T08:48:22.503Z,100720.63
2022-08-19T08:50:53.569Z,100720.13
2022-08-19T08:53:29.120Z,100717.47
2022-08-19T08:55:57.510Z,100727.91
2022-08-19T08:58:30.154Z,100722.44
2022-08-19T09:00:58.244Z,100723.78
2022-08-19T09:03:28.192Z,100715.69
2022-08-19T09:06:02.435Z,100714.53
2022-08-19T09:08:45.298Z,100715.47
2022-08-19T09:11:42.014Z,100710.53
2022-08-19T09:14:29.200Z,100711.38
2022-08-19T09:17:00.260Z,100725.00
2022-08-19T09:19:27.943Z,100726.47
2022-08-19T09:21:57.112Z,100724.78
2022-08-19T09:24:31.062Z,100718.81
2022-08-19T09:26:58.953Z,100707.38
2022-08-19T09:29:26.547Z,100710.16
2022-08-19T09:31:54.604Z,100706.00
2022-08-19T09:34:22.612Z,100717.47
2022-08-19T09:36:56.165Z,100705.22
2022-08-19T09:39:24.027Z,100702.25
2022-08-19T09:41:53.820Z,100701.91
2022-08-19T09:44:22.463Z,100701.25
2022-08-19T09:46:50.287Z,100708.63
2022-08-19T09:49:19.007Z,100708.66
2022-08-19T09:51:51.328Z,100711.03
2022-08-19T09:54:24.193Z,100707.50
2022-08-19T09:56:54.422Z,100697.56
2022-08-19T09:59:22.364Z,100702.47
2022-08-19T10:01:50.100Z,100705.25
2022-08-19T10:04:20.305Z,100700.22
2022-08-19T10:06:48.485Z,100696.50
2022-08-19T10:09:34.161Z,100694.94
2022-08-19T10:12:05.014Z,100700.91
2022-08-19T10:14:33.944Z,100693.19
2022-08-19T10:17:12.908Z,100694.47
2022-08-19T10:19:55.611Z,100692.63
2022-08-19T10:22:25.451Z,100691.72
2022-08-19T10:24:53.856Z,100691.03
2022-08-19T10:27:22.830Z,100687.97
2022-08-19T10:29:50.460Z,100689.81
2022-08-19T10:32:18.079Z,100684.53
2022-08-19T10:34:48.186Z,100692.53
2022-08-19T10:37:23.802Z,100684.44
2022-08-19T10:39:56.591Z,100689.50
2022-08-19T10:42:25.617Z,100689.91
2022-08-19T10:44:53.256Z,100680.81
2022-08-19T10:47:25.067Z,100675.03
2022-08-19T10:50:12.441Z,100669.13
2022-08-19T10:52:49.102Z,100676.13
2022-08-19T10:55:37.796Z,100678.19
2022-08-19T10:58:12.425Z,100681.38
2022-08-19T11:00:40.682Z,100678.03
2022-08-19T11:03:08.315Z,100669.72
2022-08-19T11:05:39.992Z,100666.09
2022-08-19T11:08:22.300Z,100663.69
2022-08-19T11:10:50.616Z,100664.59
2022-08-19T11:13:19.594Z,100664.25
2022-08-19T11:15:48.392Z,100669.03
2022-08-19T11:18:17.778Z,100670.59
2022-08-19T11:20:45.443Z,100671.78
2022-08-19T11:23:13.116Z,100669.06
2022-08-19T11:25:40.735Z,100661.69
2022-08-19T11:28:08.323Z,100661.19
2022-08-19T11:30:39.159Z,100663.53
2022-08-19T11:33:06.836Z,100660.66
2022-08-19T11:35:34.815Z,100660.19
2022-08-19T11:38:06.262Z,100656.75
2022-08-19T11:40:35.887Z,100660.53
2022-08-19T11:43:03.502Z,100670.25
2022-08-19T11:45:31.143Z,100655.72
2022-08-19T11:48:00.117Z,100651.75
2022-08-19T11:50:27.706Z,100648.88
2022-08-19T11:55:10.825Z,100645.88
2022-08-19T11:57:38.828Z,100653.63
2022-08-19T12:00:08.340Z,100651.03
2022-08-19T12:02:36.012Z,100647.00
2022-08-19T12:05:04.961Z,100650.69
2022-08-19T12:07:35.639Z,100648.63
2022-08-19T12:10:03.650Z,100650.19
2022-08-19T12:12:32.639Z,100649.78
2022-08-19T12:15:00.255Z,100646.38
2022-08-19T12:17:28.661Z,100648.31
2022-08-19T12:19:56.647Z,100648.91
2022-08-19T12:22:24.340Z,100653.16
2022-08-19T12:24:54.064Z,100648.88
2022-08-19T12:27:32.179Z,100650.75
2022-08-19T12:30:14.159Z,100653.88
2022-08-19T12:32:42.658Z,100649.84
2022-08-19T12:35:12.274Z,100650.53
2022-08-19T12:37:42.754Z,100652.13
2022-08-19T12:40:12.741Z,100654.91
2022-08-19T12:42:43.207Z,100648.31
2022-08-19T12:45:13.722Z,100646.47
2022-08-19T12:47:42.336Z,100648.72
2022-08-19T12:50:13.747Z,100649.25
2022-08-19T12:52:43.211Z,100647.28
2022-08-19T12:55:11.515Z,100646.31
2022-08-19T12:57:39.216Z,100644.84
2022-08-19T13:00:11.537Z,100642.38
2022-08-19T13:02:41.613Z,100639.63
2022-08-19T13:05:12.149Z,100632.81
2022-08-19T13:07:40.695Z,100643.69
2022-08-19T13:10:10.405Z,100635.63
2022-08-19T13:12:38.031Z,100631.34
2022-08-19T13:15:11.002Z,100633.97
2022-08-19T13:17:41.983Z,100634.28
2022-08-19T13:20:11.528Z,100632.16
2022-08-19T13:22:39.514Z,100627.34
2022-08-19T13:25:08.967Z,100631.59
2022-08-19T13:27:36.742Z,100635.72
2022-08-19T13:30:24.067Z,100628.25
2022-08-19T13:33:10.639Z,100630.09
2022-08-19T13:35:38.397Z,100621.59
2022-08-19T13:38:11.748Z,100617.84
2022-08-19T13:40:41.215Z,100625.25
2022-08-19T13:43:22.526Z,100621.09
2022-08-19T13:45:53.504Z,100618.81
2022-08-19T13:48:22.741Z,100596.00
2022-08-19T13:50:50.348Z,100595.22
2022-08-19T13:53:18.231Z,100597.66
2022-08-19T13:55:46.193Z,100595.78
2022-08-19T13:58:14.322Z,100603.72
2022-08-19T14:00:44.425Z,100597.34
2022-08-19T14:03:12.298Z,100601.06
2022-08-19T14:05:41.327Z,100604.03
2022-08-19T14:08:10.203Z,100596.22
2022-08-19T14:10:37.785Z,100603.63
2022-08-19T14:13:05.954Z,100604.09
2022-08-19T14:15:33.774Z,100590.31
2022-08-19T14:18:01.935Z,100597.78
2022-08-19T14:20:29.580Z,100587.88
2022-08-19T14:22:58.679Z,100587.72
2022-08-19T14:25:28.139Z,100581.91
2022-08-19T14:27:56.510Z,100580.53
2022-08-19T14:30:27.707Z,100576.47
2022-08-19T14:32:55.757Z,100589.66
2022-08-19T14:35:23.939Z,100606.22
2022-08-19T14:37:54.768Z,100581.25
2022-08-19T14:40:27.018Z,100580.34
2022-08-19T14:42:56.661Z,100580.84
2022-08-19T14:45:24.493Z,100585.25
2022-08-19T14:47:52.096Z,100570.50
2022-08-19T14:50:19.974Z,100590.94
2022-08-19T14:52:48.666Z,100585.06
2022-08-19T14:55:16.988Z,100584.06
2022-08-19T14:57:46.725Z,100587.28
2022-08-19T15:00:15.943Z,100586.53
2022-08-19T15:02:45.074Z,100586.53
2022-08-19T15:05:13.068Z,100592.97
2022-08-19T15:07:41.775Z,100588.38
2022-08-19T15:10:12.061Z,100594.53
2022-08-19T15:12:41.071Z,100594.59
2022-08-19T15:15:13.615Z,100591.56
2022-08-19T15:17:46.057Z,100593.34
2022-08-19T15:20:18.111Z,100593.31
2022-08-19T15:22:45.825Z,100596.56
2022-08-19T15:25:15.609Z,100597.66
2022-08-19T15:27:44.195Z,100596.81
2022-08-19T15:30:14.203Z,100586.63
2022-08-19T15:32:45.158Z,100582.91
2022-08-19T15:35:15.256Z,100578.56
2022-08-19T15:37:42.809Z,100585.50
2022-08-19T15:40:11.308Z,100583.88
2022-08-19T15:42:42.328Z,100582.56
2022-08-19T15:45:10.987Z,100596.03
2022-08-19T15:47:40.126Z,100600.16
2022-08-19T15:50:10.794Z,100599.75
2022-08-19T15:52:48.326Z,100601.03
2022-08-19T15:55:33.601Z,100597.50
2022-08-19T15:58:27.912Z,100620.28
2022-08-19T16:01:13.449Z,100614.13
2022-08-19T16:04:00.065Z,100618.75
2022-08-19T16:06:27.704Z,100622.59
2022-08-19T16:08:56.031Z,100621.25
2022-08-19T16:11:29.384Z,100624.88
2022-08-19T16:13:57.986Z,100629.19
2022-08-19T16:16:30.989Z,100630.66
2022-08-19T16:19:11.946Z,100633.84
2022-08-19T16:21:41.764Z,100639.66
2022-08-19T16:24:11.997Z,100642.94
2022-08-19T16:26:40.175Z,100640.56
2022-08-19T16:29:12.182Z,100651.47
2022-08-19T16:31:41.950Z,100648.81
2022-08-19T16:34:11.680Z,100660.53
2022-08-19T16:36:41.982Z,100653.84
2022-08-19T16:39:10.193Z,100660.91
2022-08-19T16:41:38.113Z,100660.56
2022-08-19T16:44:06.398Z,100669.31
2022-08-19T16:46:34.443Z,100671.31
2022-08-19T16:49:02.128Z,100673.66
2022-08-19T16:51:31.643Z,100674.28
2022-08-19T16:53:59.539Z,100670.50
2022-08-19T16:56:28.751Z,100672.22
2022-08-19T16:58:59.576Z,100674.69
2022-08-19T17:01:27.629Z,100670.16
2022-08-19T17:03:55.883Z,100666.44
2022-08-19T17:06:25.972Z,100671.44
2022-08-19T17:08:57.087Z,100666.88
2022-08-19T17:11:26.580Z,100669.94
2022-08-19T17:13:55.448Z,100662.66
2022-08-19T17:16:26.025Z,100669.88
2022-08-19T17:18:54.027Z,100671.56
2022-08-19T17:21:22.507Z,100678.31
2022-08-19T17:23:50.435Z,100679.06
2022-08-19T17:26:19.940Z,100688.84
2022-08-19T17:28:49.374Z,100688.31
2022-08-19T17:31:17.480Z,100689.47
2022-08-19T17:33:48.188Z,100681.38
2022-08-19T17:36:16.849Z,100692.94
2022-08-19T17:38:44.489Z,100695.31
2022-08-19T17:41:12.276Z,100688.88
2022-08-19T17:43:43.901Z,100688.34
2022-08-19T17:46:17.886Z,100686.19
2022-08-19T17:48:51.919Z,100704.38
2022-08-19T17:51:23.287Z,100698.69
2022-08-19T17:53:52.590Z,100698.16
2022-08-19T17:56:20.571Z,100693.22
2022-08-19T17:58:57.720Z,100699.78
2022-08-19T18:01:43.969Z,100700.91
2022-08-19T18:04:17.088Z,100697.41
2022-08-19T18:06:46.606Z,100695.03
2022-08-19T18:09:20.956Z,100697.31
2022-08-19T18:11:52.797Z,100697.69
2022-08-19T18:14:33.393Z,100703.13
2022-08-19T18:17:02.788Z,100687.53
2022-08-19T18:19:41.125Z,100695.72
2022-08-19T18:22:09.555Z,100708.13
2022-08-19T18:24:38.818Z,100699.47
2022-08-19T18:27:06.811Z,100700.31
2022-08-19T18:29:37.956Z,100701.00
2022-08-19T18:32:06.013Z,100708.88
2022-08-19T18:34:33.607Z,100700.44
2022-08-19T18:37:01.208Z,100698.19
2022-08-19T18:39:46.344Z,100689.63
2022-08-19T18:42:33.230Z,100697.34
2022-08-19T18:45:19.951Z,100697.66
2022-08-19T18:48:05.128Z,100704.84
2022-08-19T18:50:33.004Z,100696.66
2022-08-19T18:53:01.713Z,100704.00
2022-08-19T18:55:29.374Z,100701.25
2022-08-19T18:57:57.195Z,100706.91
2022-08-19T19:00:26.341Z,100708.88
2022-08-19T19:02:54.483Z,100713.25
2022-08-19T19:05:23.268Z,100712.41
2022-08-19T19:07:54.285Z,100711.56
2022-08-19T19:10:21.921Z,100716.63
2022-08-19T19:12:50.284Z,100720.28
2022-08-19T19:15:18.776Z,100719.84
2022-08-19T19:17:47.758Z,100726.88
2022-08-19T19:20:15.356Z,100727.03
2022-08-19T19:22:42.907Z,100735.38
2022-08-19T19:25:11.698Z,100740.19
2022-08-19T19:27:40.247Z,100746.38
2022-08-19T19:30:09.631Z,100745.53
2022-08-19T19:32:39.237Z,100747.78
2022-08-19T19:35:09.789Z,100755.00
2022-08-19T19:37:37.492Z,100758.38
2022-08-19T19:40:05.806Z,100754.28
2022-08-19T19:42:33.475Z,100761.09
2022-08-19T19:45:02.015Z,100758.00
2022-08-19T19:47:30.940Z,100755.53
2022-08-19T19:50:15.512Z,100769.34
2022-08-19T19:52:47.059Z,100760.47
2022-08-19T19:55:18.211Z,100751.91
2022-08-19T19:57:46.284Z,100759.53
2022-08-19T20:00:16.619Z,100761.81
2022-08-19T20:02:49.585Z,100761.00
2022-08-19T20:05:19.084Z,100760.13
2022-08-19T20:08:05.528Z,100754.94
2022-08-19T20:10:33.420Z,100762.53
2022-08-19T20:13:03.323Z,100763.22
2022-08-19T20:15:32.056Z,100764.91
2022-08-19T20:18:00.744Z,100765.75
2022-08-19T20:20:28.376Z,100776.03
2022-08-19T20:22:57.383Z,100763.78
2022-08-19T20:25:25.176Z,100770.81
2022-08-19T20:27:52.879Z,100763.78
2022-08-19T20:30:23.182Z,100763.78
2022-08-19T20:32:51.393Z,100761.09
2022-08-19T20:35:21.900Z,100766.03
2022-08-19T20:37:52.850Z,100763.78
2022-08-19T20:40:25.033Z,100767.44
2022-08-19T20:42:52.652Z,100767.88
2022-08-19T20:45:33.496Z,100765.47
2022-08-19T20:48:02.256Z,100762.38
2022-08-19T20:50:29.979Z,100764.19
2022-08-19T20:52:58.303Z,100761.38
2022-08-19T20:55:28.837Z,100762.38
2022-08-19T20:57:56.649Z,100758.72
2022-08-19T21:00:24.485Z,100755.91
2022-08-19T21:02:52.107Z,100752.66
2022-08-19T21:05:19.704Z,100759.56
2022-08-19T21:07:47.295Z,100759.28
2022-08-19T21:10:15.327Z,100754.47
2022-08-19T21:12:44.534Z,100747.16
2022-08-19T21:15:12.364Z,100747.88
2022-08-19T21:17:40.034Z,100743.78
2022-08-19T21:20:09.010Z,100753.59
2022-08-19T21:22:36.903Z,100756.38
2022-08-19T21:25:05.876Z,100761.41
2022-08-19T21:27:33.596Z,100761.09
2022-08-19T21:30:02.601Z,100765.03
2022-08-19T21:32:30.194Z,100766.41
2022-08-19T21:34:57.782Z,100771.03
2022-08-19T21:37:26.291Z,100770.94
2022-08-19T21:39:54.105Z,100768.25
2022-08-19T21:42:22.505Z,100768.69
2022-08-19T21:44:50.132Z,100777.66
2022-08-19T21:47:19.123Z,100778.78
2022-08-19T21:49:47.016Z,100783.47
2022-08-19T21:52:14.621Z,100785.13
2022-08-19T21:54:42.214Z,100789.94
2022-08-19T21:57:10.706Z,100787.97
2022-08-19T21:59:39.606Z,100785.72
2022-08-19T22:02:19.449Z,100786.84
2022-08-19T22:04:49.760Z,100793.47
2022-08-19T22:07:17.435Z,100796.31
2022-08-19T22:09:46.736Z,100794.06
2022-08-19T22:12:23.280Z,100784.03
2022-08-19T22:14:51.651Z,100793.19
2022-08-19T22:17:19.816Z,100795.03
2022-08-19T22:19:48.846Z,100793.63
2022-08-19T22:22:22.127Z,100785.59
2022-08-19T22:24:49.755Z,100805.38
2022-08-19T22:27:17.450Z,100811.09
2022-08-19T22:29:45.256Z,100825.41
2022-08-19T22:32:26.347Z,100832.50
2022-08-19T22:34:57.843Z,100852.03
2022-08-19T22:37:25.594Z,100845.75
2022-08-19T22:39:53.196Z,100840.66
2022-08-19T22:42:21.912Z,100842.88
2022-08-19T22:44:49.780Z,100835.69
2022-08-19T22:47:17.942Z,100831.56
2022-08-19T22:49:45.981Z,100838.84
2022-08-19T22:52:18.093Z,100840.28
2022-08-19T22:54:46.923Z,100850.09
2022-08-19T22:57:15.032Z,100846.31
2022-08-19T22:59:42.657Z,100852.94
2022-08-19T23:02:10.847Z,100858.97
2022-08-19T23:04:38.864Z,100866.47
2022-08-19T23:07:07.537Z,100866.97
2022-08-19T23:09:36.670Z,100866.50
2022-08-19T23:12:05.092Z,100862.66
2022-08-19T23:14:32.695Z,100872.31
2022-08-19T23:17:01.380Z,100874.00
2022-08-19T23:19:29.602Z,100875.44
2022-08-19T23:21:57.590Z,100869.44
2022-08-19T23:24:25.526Z,100863.59
2022-08-19T23:27:23.413Z,100862.38
2022-08-19T23:30:09.547Z,100869.16
2022-08-19T23:32:37.107Z,100860.94
2022-08-19T23:35:05.244Z,100864.78
2022-08-19T23:37:32.808Z,100856.72
2022-08-19T23:40:00.724Z,100856.81
2022-08-19T23:42:29.714Z,100848.31
2022-08-19T23:45:01.742Z,100847.34
2022-08-19T23:47:31.881Z,100842.75
2022-08-19T23:50:01.243Z,100847.09
2022-08-19T23:52:29.392Z,100847.94
2022-08-19T23:55:01.231Z,100848.19
2022-08-19T23:57:30.175Z,100841.75
2022-08-19T23:59:58.015Z,100848.34
